Satellite Beach, Florida
Current Conditions -  °F | °C
As of 7:58 PM on Tuesday 21 Oct 2014 (Local Time) from KCOF Reporting Station
Clear Clear  
Wind Chill: 76°   Ceiling: Unl
Heat Index: 77°   Visibility: 10mi
Dew Point: 71°   Wind: 12mph
Humidity: 84%   Direction: 190°S
Pressure: 29.93"   Gusts: NA
Location:  28.17°N, 80.6°W
Report Text: KCOF 212358Z AUTO 19010KT 10SM CLR 25/22 A2993 RMK AO2 SLP140 T02450217 10269 20245 53008
Loading
Personal Weather Stations






























Interactive Weather Map
Tropical Storm Tracking
New forecast layout! Learn more

10-Day Weather Forecast

Advertisements
Track Severe Weather on mobile